createdAt,value
2017-09-24T00:00:18.027Z,49.63
2017-09-24T00:02:52.919Z,52.67
2017-09-24T00:05:27.564Z,48.63
2017-09-24T00:08:02.062Z,48.87
2017-09-24T00:10:36.823Z,50.83
2017-09-24T00:13:11.691Z,50.93
2017-09-24T00:15:46.431Z,50.07
2017-09-24T00:18:21.148Z,48.47
2017-09-24T00:20:55.974Z,47.53
2017-09-24T00:23:31.811Z,52.03
2017-09-24T00:26:06.313Z,51.00
2017-09-24T00:28:41.055Z,49.40
2017-09-24T00:31:15.567Z,49.23
2017-09-24T00:33:50.423Z,48.23
2017-09-24T00:36:25.251Z,49.13
2017-09-24T00:38:59.980Z,47.33
2017-09-24T00:41:34.389Z,48.27
2017-09-24T00:44:09.315Z,45.70
2017-09-24T00:46:44.000Z,46.10
2017-09-24T00:49:18.787Z,48.53
2017-09-24T00:51:53.775Z,48.43
2017-09-24T00:54:28.871Z,47.03
2017-09-24T00:57:03.584Z,45.57
2017-09-24T00:59:38.282Z,46.47
2017-09-24T01:02:13.259Z,46.60
2017-09-24T01:04:47.991Z,48.07
2017-09-24T01:07:22.622Z,45.67
2017-09-24T01:09:57.244Z,43.50
2017-09-24T01:12:32.443Z,43.23
2017-09-24T01:15:07.028Z,43.67
2017-09-24T01:17:42.037Z,44.13
2017-09-24T01:20:16.612Z,44.47
2017-09-24T01:22:51.323Z,47.57
2017-09-24T01:25:26.431Z,44.97
2017-09-24T01:28:00.811Z,44.07
2017-09-24T01:30:35.580Z,44.27
2017-09-24T01:33:10.241Z,44.83
2017-09-24T01:35:46.009Z,48.77
2017-09-24T01:38:20.699Z,42.30
2017-09-24T01:40:55.286Z,46.30
2017-09-24T01:43:29.907Z,44.70
2017-09-24T01:46:04.739Z,42.37
2017-09-24T01:48:39.495Z,44.57
2017-09-24T01:51:14.143Z,43.10
2017-09-24T01:53:48.924Z,42.50
2017-09-24T01:56:23.791Z,40.43
2017-09-24T01:58:58.404Z,42.03
2017-09-24T02:01:32.708Z,39.53
2017-09-24T02:04:07.952Z,42.23
2017-09-24T02:06:43.451Z,44.17
2017-09-24T02:09:18.343Z,41.07
2017-09-24T02:11:53.066Z,41.83
2017-09-24T02:14:27.752Z,40.33
2017-09-24T02:17:02.611Z,39.10
2017-09-24T02:19:37.656Z,42.20
2017-09-24T02:22:12.474Z,39.87
2017-09-24T02:24:47.107Z,42.67
2017-09-24T02:27:21.817Z,39.40
2017-09-24T02:29:56.391Z,41.23
2017-09-24T02:32:31.987Z,39.73
2017-09-24T02:35:06.696Z,41.50
2017-09-24T02:37:42.201Z,43.77
2017-09-24T02:40:17.775Z,41.17
2017-09-24T02:42:52.383Z,40.73
2017-09-24T02:45:27.050Z,41.00
2017-09-24T02:48:01.945Z,40.83
2017-09-24T02:50:36.643Z,42.13
2017-09-24T02:53:11.339Z,42.50
2017-09-24T02:55:45.946Z,43.60
2017-09-24T02:58:20.721Z,42.63
2017-09-24T03:00:55.356Z,41.90
2017-09-24T03:03:30.964Z,40.70
2017-09-24T03:06:06.583Z,38.50
2017-09-24T03:08:41.089Z,41.37
2017-09-24T03:11:15.803Z,37.07
2017-09-24T03:13:50.447Z,37.70
2017-09-24T03:16:25.205Z,39.80
2017-09-24T03:18:59.884Z,40.27
2017-09-24T03:21:34.808Z,40.80
2017-09-24T03:24:09.749Z,40.60
2017-09-24T03:26:44.263Z,40.47
2017-09-24T03:29:19.127Z,43.20
2017-09-24T03:31:53.745Z,41.73
2017-09-24T03:34:28.599Z,41.80
2017-09-24T03:37:03.323Z,44.67
2017-09-24T03:39:38.159Z,44.37
2017-09-24T03:42:12.560Z,44.10
2017-09-24T03:44:47.268Z,43.20
2017-09-24T03:47:22.015Z,41.07
2017-09-24T03:49:56.652Z,41.20
2017-09-24T03:52:31.366Z,41.33
2017-09-24T03:55:06.031Z,40.17
2017-09-24T03:57:40.589Z,38.77
2017-09-24T04:00:15.447Z,42.80
2017-09-24T04:02:50.397Z,41.67
2017-09-24T04:05:25.138Z,41.80
2017-09-24T04:07:59.929Z,43.67
2017-09-24T04:10:34.369Z,42.57
2017-09-24T04:13:09.203Z,41.37
2017-09-24T04:15:43.907Z,42.53
2017-09-24T04:18:18.742Z,43.33
2017-09-24T04:20:53.644Z,42.00
2017-09-24T04:23:28.573Z,41.80
2017-09-24T04:26:03.261Z,42.07
2017-09-24T04:28:37.978Z,40.33
2017-09-24T04:31:12.503Z,40.90
2017-09-24T04:33:47.013Z,42.17
2017-09-24T04:36:21.707Z,43.73
2017-09-24T04:38:56.412Z,40.60
2017-09-24T04:41:31.105Z,41.80
2017-09-24T04:44:06.035Z,41.47
2017-09-24T04:46:40.804Z,41.70
2017-09-24T04:49:15.451Z,43.27
2017-09-24T04:51:50.155Z,41.47
2017-09-24T04:54:24.875Z,41.93
2017-09-24T04:56:59.347Z,41.70
2017-09-24T04:59:34.157Z,40.50
2017-09-24T05:02:08.795Z,41.40
2017-09-24T05:04:43.694Z,41.73
2017-09-24T05:07:18.469Z,39.77
2017-09-24T05:09:53.206Z,38.73
2017-09-24T05:12:27.932Z,37.30
2017-09-24T05:15:02.722Z,37.80
2017-09-24T05:17:37.965Z,38.20
2017-09-24T05:20:13.087Z,37.90
2017-09-24T05:22:47.886Z,39.90
2017-09-24T05:25:22.519Z,37.27
2017-09-24T05:27:57.242Z,34.93
2017-09-24T05:30:31.932Z,37.27
2017-09-24T05:33:06.827Z,39.17
2017-09-24T05:35:41.621Z,35.63
2017-09-24T05:38:16.270Z,36.30
2017-09-24T05:40:51.068Z,38.00
2017-09-24T05:43:25.779Z,36.63
2017-09-24T05:46:00.693Z,35.70
2017-09-24T05:48:36.310Z,37.10
2017-09-24T05:51:10.871Z,35.70
2017-09-24T05:53:45.663Z,37.13
2017-09-24T05:56:20.373Z,35.93
2017-09-24T05:58:55.175Z,35.03
2017-09-24T06:01:30.067Z,32.70
2017-09-24T06:04:04.835Z,33.97
2017-09-24T06:06:40.116Z,29.90
2017-09-24T06:09:15.861Z,34.20
2017-09-24T06:11:51.636Z,29.00
2017-09-24T06:14:26.431Z,32.63
2017-09-24T06:17:00.906Z,30.63
2017-09-24T06:19:36.425Z,31.97
2017-09-24T06:22:12.167Z,33.00
2017-09-24T06:24:46.873Z,29.60
2017-09-24T06:27:21.193Z,26.50
2017-09-24T06:29:56.242Z,33.37
2017-09-24T06:32:30.811Z,29.67
2017-09-24T06:35:05.194Z,31.47
2017-09-24T06:37:39.823Z,32.60
2017-09-24T06:40:14.724Z,32.03
2017-09-24T06:42:49.449Z,30.23
2017-09-24T06:45:24.586Z,33.20
2017-09-24T06:47:59.403Z,33.00
2017-09-24T06:50:34.516Z,31.13
2017-09-24T06:53:09.721Z,29.57
2017-09-24T06:55:44.941Z,27.77
2017-09-24T06:58:19.554Z,30.87
2017-09-24T07:00:55.036Z,30.37
2017-09-24T07:03:29.828Z,29.00
2017-09-24T07:06:04.571Z,28.27
2017-09-24T07:08:39.231Z,29.70
2017-09-24T07:11:13.843Z,29.40
2017-09-24T07:13:48.512Z,28.47
2017-09-24T07:16:24.095Z,26.83
2017-09-24T07:18:58.824Z,28.53
2017-09-24T07:21:33.579Z,28.43
2017-09-24T07:24:08.080Z,27.53
2017-09-24T07:26:42.854Z,26.13
2017-09-24T07:29:17.559Z,26.87
2017-09-24T07:31:52.252Z,29.07
2017-09-24T07:34:26.829Z,29.80
2017-09-24T07:37:01.893Z,27.50
2017-09-24T07:39:36.270Z,25.83
2017-09-24T07:42:11.087Z,28.63
2017-09-24T07:44:46.216Z,27.90
2017-09-24T07:47:21.894Z,26.93
2017-09-24T07:49:56.960Z,28.30
2017-09-24T07:52:31.488Z,25.63
2017-09-24T07:55:06.094Z,25.30
2017-09-24T07:57:40.738Z,25.20
2017-09-24T08:00:15.379Z,25.23
2017-09-24T08:02:50.538Z,25.40
2017-09-24T08:05:25.664Z,25.60
2017-09-24T08:08:00.748Z,26.80
2017-09-24T08:10:35.468Z,25.27
2017-09-24T08:13:10.080Z,21.93
2017-09-24T08:15:44.914Z,21.70
2017-09-24T08:18:20.091Z,20.43
2017-09-24T08:20:54.643Z,22.13
2017-09-24T08:23:29.868Z,23.50
2017-09-24T08:26:05.064Z,20.00
2017-09-24T08:28:39.800Z,20.10
2017-09-24T08:31:14.424Z,20.90
2017-09-24T08:33:49.270Z,20.73
2017-09-24T08:36:24.179Z,21.10
2017-09-24T08:38:58.824Z,20.70
2017-09-24T08:41:34.007Z,21.20
2017-09-24T08:44:09.624Z,22.53
2017-09-24T08:46:44.355Z,21.90
2017-09-24T08:49:19.151Z,20.80
2017-09-24T08:51:53.904Z,19.53
2017-09-24T08:54:28.983Z,18.20
2017-09-24T08:57:03.897Z,19.50
2017-09-24T08:59:38.743Z,18.80
2017-09-24T09:02:13.464Z,17.57
2017-09-24T09:04:48.598Z,18.13
2017-09-24T09:07:23.324Z,18.50
2017-09-24T09:09:58.111Z,17.40
2017-09-24T09:12:33.248Z,16.10
2017-09-24T09:15:07.892Z,17.30
2017-09-24T09:17:42.688Z,14.30
2017-09-24T09:20:17.558Z,13.67
2017-09-24T09:22:52.311Z,12.67
2017-09-24T09:25:27.254Z,12.33
2017-09-24T09:28:02.075Z,10.90
2017-09-24T09:30:37.233Z,12.97
2017-09-24T09:33:20.673Z,10.73
2017-09-24T09:35:55.595Z,9.70
2017-09-24T09:38:30.356Z,10.10
2017-09-24T09:41:05.016Z,9.43
2017-09-24T09:43:45.171Z,8.10
2017-09-24T09:46:30.531Z,6.87
2017-09-24T09:49:05.216Z,7.17
2017-09-24T09:51:40.056Z,7.10
2017-09-24T09:54:15.016Z,7.00
2017-09-24T09:56:49.824Z,7.20
2017-09-24T09:59:24.280Z,7.47
2017-09-24T10:01:59.007Z,6.87
2017-09-24T10:04:33.636Z,6.73
2017-09-24T10:07:20.944Z,7.50
2017-09-24T10:10:07.208Z,6.13
2017-09-24T10:12:42.819Z,7.50
2017-09-24T10:15:17.725Z,7.70
2017-09-24T10:17:52.472Z,19.43
2017-09-24T10:20:27.096Z,8.50
2017-09-24T10:23:01.629Z,34.90
2017-09-24T10:25:36.659Z,11.30
2017-09-24T10:28:22.763Z,9.10
2017-09-24T10:30:58.119Z,9.57
2017-09-24T10:33:32.618Z,8.20
2017-09-24T10:36:07.602Z,6.67
2017-09-24T10:38:42.572Z,6.10
2017-09-24T10:41:17.422Z,5.70
2017-09-24T10:43:52.297Z,5.10
2017-09-24T10:46:27.491Z,4.37
2017-09-24T10:49:02.606Z,4.30
2017-09-24T10:51:37.205Z,3.80
2017-09-24T10:54:12.339Z,4.10
2017-09-24T10:56:46.804Z,4.20
2017-09-24T10:59:21.336Z,4.17
2017-09-24T11:01:56.146Z,5.80
2017-09-24T11:04:31.084Z,5.17
2017-09-24T11:07:05.795Z,5.03
2017-09-24T11:09:40.695Z,4.60
2017-09-24T11:12:15.255Z,4.10
2017-09-24T11:14:50.002Z,4.80
2017-09-24T11:17:24.746Z,4.87
2017-09-24T11:19:59.684Z,4.80
2017-09-24T11:22:34.644Z,4.80
2017-09-24T11:25:09.248Z,5.07
2017-09-24T11:27:44.972Z,5.10
2017-09-24T11:30:19.825Z,5.17
2017-09-24T11:32:54.524Z,4.50
2017-09-24T11:35:29.266Z,4.07
2017-09-24T11:38:03.884Z,4.37
2017-09-24T11:40:38.736Z,5.40
2017-09-24T11:43:13.696Z,6.90
2017-09-24T11:45:48.720Z,4.53
2017-09-24T11:48:23.552Z,4.67
2017-09-24T11:50:58.540Z,6.57
2017-09-24T11:53:33.194Z,7.27
2017-09-24T11:56:08.112Z,7.90
2017-09-24T11:58:42.707Z,7.90
2017-09-24T12:01:17.463Z,8.93
2017-09-24T12:03:51.936Z,9.13
2017-09-24T12:06:26.844Z,6.23
2017-09-24T12:09:02.552Z,7.70
2017-09-24T12:11:37.387Z,10.10
2017-09-24T12:14:12.132Z,7.70
2017-09-24T12:16:46.817Z,10.10
2017-09-24T12:19:21.692Z,8.20
2017-09-24T12:21:56.424Z,9.33
2017-09-24T12:24:31.135Z,9.13
2017-09-24T12:27:05.890Z,8.50
2017-09-24T12:29:40.778Z,10.63
2017-09-24T12:32:15.507Z,7.97
2017-09-24T12:34:50.139Z,9.63
2017-09-24T12:37:24.767Z,8.17
2017-09-24T12:39:59.499Z,10.70
2017-09-24T12:42:34.294Z,6.80
2017-09-24T12:45:09.004Z,9.63
2017-09-24T12:47:43.629Z,8.60
2017-09-24T12:50:18.308Z,8.63
2017-09-24T12:52:53.124Z,10.07
2017-09-24T12:55:28.174Z,9.13
2017-09-24T12:58:02.572Z,8.07
2017-09-24T13:00:37.694Z,10.60
2017-09-24T13:03:12.466Z,9.17
2017-09-24T13:05:47.335Z,9.97
2017-09-24T13:08:21.816Z,10.30
2017-09-24T13:10:56.367Z,10.63
2017-09-24T13:13:31.188Z,10.97
2017-09-24T13:16:06.131Z,10.90
2017-09-24T13:18:40.831Z,11.73
2017-09-24T13:21:15.583Z,11.00
2017-09-24T13:23:50.429Z,10.43
2017-09-24T13:26:25.324Z,10.60
2017-09-24T13:29:00.190Z,10.87
2017-09-24T13:31:35.015Z,18.57
2017-09-24T13:34:09.580Z,11.53
2017-09-24T13:36:44.435Z,29.30
2017-09-24T13:39:19.216Z,10.07
2017-09-24T13:41:56.047Z,11.70
2017-09-24T13:44:30.412Z,12.37
2017-09-24T13:47:05.252Z,10.13
2017-09-24T13:49:40.060Z,12.57
2017-09-24T13:52:14.585Z,12.17
2017-09-24T13:54:49.373Z,13.10
2017-09-24T13:57:24.147Z,12.47
2017-09-24T13:59:59.413Z,12.53
2017-09-24T14:02:34.217Z,16.63
2017-09-24T14:05:08.975Z,17.23
2017-09-24T14:07:43.909Z,12.60
2017-09-24T14:10:18.627Z,11.93
2017-09-24T14:12:53.460Z,12.20
2017-09-24T14:15:28.435Z,10.93
2017-09-24T14:18:03.315Z,12.27
2017-09-24T14:20:37.740Z,12.47
2017-09-24T14:23:12.600Z,11.50
2017-09-24T14:25:47.400Z,11.47
2017-09-24T14:28:21.863Z,11.77
2017-09-24T14:30:56.887Z,12.00
2017-09-24T14:33:31.179Z,11.70
2017-09-24T14:36:06.544Z,11.50
2017-09-24T14:38:41.200Z,11.90
2017-09-24T14:41:16.028Z,13.03
2017-09-24T14:43:50.827Z,11.73
2017-09-24T14:46:25.780Z,11.37
2017-09-24T14:49:00.464Z,11.83
2017-09-24T14:51:35.412Z,12.03
2017-09-24T14:54:10.244Z,12.97
2017-09-24T14:56:45.376Z,12.67
2017-09-24T14:59:20.096Z,12.00
2017-09-24T15:01:55.022Z,12.10
2017-09-24T15:04:29.786Z,11.87
2017-09-24T15:07:05.267Z,12.07
2017-09-24T15:09:39.658Z,12.03
2017-09-24T15:12:14.227Z,14.23
2017-09-24T15:14:48.854Z,15.70
2017-09-24T15:17:23.424Z,17.70
2017-09-24T15:19:58.086Z,14.10
2017-09-24T15:22:33.129Z,14.07
2017-09-24T15:25:07.845Z,14.13
2017-09-24T15:27:43.049Z,14.13
2017-09-24T15:30:17.712Z,24.30
2017-09-24T15:32:52.431Z,17.87
2017-09-24T15:35:27.251Z,14.70
2017-09-24T15:38:02.067Z,15.10
2017-09-24T15:40:37.206Z,15.37
2017-09-24T15:43:12.183Z,15.80
2017-09-24T15:45:46.815Z,15.20
2017-09-24T15:48:21.688Z,14.60
2017-09-24T15:50:56.556Z,13.97
2017-09-24T15:53:31.835Z,14.97
2017-09-24T15:56:06.395Z,15.60
2017-09-24T15:58:41.219Z,15.77
2017-09-24T16:01:15.994Z,15.13
2017-09-24T16:03:50.814Z,16.60
2017-09-24T16:06:25.587Z,15.77
2017-09-24T16:09:00.604Z,17.27
2017-09-24T16:11:35.358Z,14.90
2017-09-24T16:14:10.027Z,12.80
2017-09-24T16:16:44.782Z,14.93
2017-09-24T16:19:19.535Z,15.33
2017-09-24T16:21:54.255Z,15.47
2017-09-24T16:24:29.154Z,14.37
2017-09-24T16:27:03.896Z,13.13
2017-09-24T16:29:38.630Z,16.60
2017-09-24T16:32:13.422Z,16.97
2017-09-24T16:34:48.243Z,19.60
2017-09-24T16:37:23.078Z,17.50
2017-09-24T16:39:57.860Z,18.17
2017-09-24T16:42:33.068Z,17.73
2017-09-24T16:45:08.168Z,17.07
2017-09-24T16:47:43.077Z,16.53
2017-09-24T16:50:17.934Z,16.23
2017-09-24T16:52:52.809Z,16.80
2017-09-24T16:55:27.564Z,16.83
2017-09-24T16:58:02.841Z,17.27
2017-09-24T17:00:37.488Z,13.60
2017-09-24T17:03:12.159Z,17.00
2017-09-24T17:05:46.868Z,20.80
2017-09-24T17:08:21.917Z,18.30
2017-09-24T17:10:59.098Z,19.23
2017-09-24T17:13:34.231Z,19.67
2017-09-24T17:16:08.980Z,19.90
2017-09-24T17:18:43.803Z,22.47
2017-09-24T17:21:18.468Z,19.00
2017-09-24T17:23:53.557Z,20.60
2017-09-24T17:26:28.326Z,21.10
2017-09-24T17:29:03.053Z,17.27
2017-09-24T17:31:37.644Z,21.60
2017-09-24T17:34:12.367Z,22.30
2017-09-24T17:36:47.639Z,24.70
2017-09-24T17:39:23.276Z,23.23
2017-09-24T17:41:58.525Z,22.10
2017-09-24T17:44:33.341Z,22.33
2017-09-24T17:47:07.975Z,25.10
2017-09-24T17:49:42.730Z,21.53
2017-09-24T17:52:17.943Z,22.40
2017-09-24T17:54:53.115Z,24.50
2017-09-24T17:57:27.956Z,27.30
2017-09-24T18:00:02.939Z,26.43
2017-09-24T18:02:38.550Z,23.10
2017-09-24T18:05:13.255Z,20.87
2017-09-24T18:07:48.204Z,21.70
2017-09-24T18:10:22.985Z,22.03
2017-09-24T18:12:57.869Z,21.53
2017-09-24T18:15:32.718Z,25.33
2017-09-24T18:18:07.428Z,22.33
2017-09-24T18:20:42.109Z,22.87
2017-09-24T18:23:16.848Z,22.93
2017-09-24T18:25:51.760Z,21.27
2017-09-24T18:28:26.574Z,23.63
2017-09-24T18:31:01.216Z,21.83
2017-09-24T18:33:36.321Z,21.23
2017-09-24T18:36:11.072Z,21.97
2017-09-24T18:38:45.896Z,20.63
2017-09-24T18:41:23.996Z,19.87
2017-09-24T18:44:00.573Z,22.67
2017-09-24T18:46:35.707Z,23.10
2017-09-24T18:49:10.340Z,23.50
2017-09-24T18:51:48.814Z,22.60
2017-09-24T18:54:24.370Z,21.07
2017-09-24T18:56:58.886Z,21.17
2017-09-24T18:59:33.972Z,20.77
2017-09-24T19:02:08.628Z,18.40
2017-09-24T19:04:43.350Z,22.30
2017-09-24T19:07:18.450Z,19.37
2017-09-24T19:09:53.371Z,21.07
2017-09-24T19:12:28.186Z,18.70
2017-09-24T19:15:03.055Z,21.70
2017-09-24T19:17:37.894Z,20.50
2017-09-24T19:20:12.320Z,21.20
2017-09-24T19:22:47.800Z,20.70
2017-09-24T19:25:23.194Z,20.37
2017-09-24T19:27:58.019Z,21.40
2017-09-24T19:30:33.808Z,23.47
2017-09-24T19:33:08.476Z,21.47
2017-09-24T19:35:45.972Z,21.07
2017-09-24T19:38:21.272Z,20.47
2017-09-24T19:40:56.291Z,18.00
2017-09-24T19:43:30.876Z,20.70
2017-09-24T19:46:06.589Z,20.20
2017-09-24T19:48:41.004Z,20.93
2017-09-24T19:51:15.874Z,20.13
2017-09-24T19:53:50.796Z,21.67
2017-09-24T19:56:25.656Z,23.23
2017-09-24T19:59:00.602Z,23.67
2017-09-24T20:01:35.300Z,22.57
2017-09-24T20:04:10.024Z,23.00
2017-09-24T20:06:45.080Z,21.83
2017-09-24T20:09:19.912Z,21.80
2017-09-24T20:11:55.008Z,21.87
2017-09-24T20:14:29.882Z,21.80
2017-09-24T20:17:04.512Z,22.13
2017-09-24T20:19:39.473Z,20.60
2017-09-24T20:22:14.270Z,22.50
2017-09-24T20:24:49.195Z,22.27
2017-09-24T20:27:24.260Z,22.13
2017-09-24T20:29:59.098Z,21.00
2017-09-24T20:32:37.408Z,21.57
2017-09-24T20:35:11.817Z,23.47
2017-09-24T20:37:48.083Z,21.60
2017-09-24T20:40:24.297Z,22.40
2017-09-24T20:42:59.707Z,21.10
2017-09-24T20:45:34.460Z,22.10
2017-09-24T20:48:09.028Z,21.87
2017-09-24T20:50:45.323Z,22.13
2017-09-24T20:53:20.514Z,23.13
2017-09-24T20:55:56.366Z,22.10
2017-09-24T20:58:34.291Z,22.33
2017-09-24T21:01:09.240Z,23.10
2017-09-24T21:03:44.468Z,25.23
2017-09-24T21:06:18.960Z,24.10
2017-09-24T21:08:53.591Z,24.40
2017-09-24T21:11:31.216Z,23.90
2017-09-24T21:14:08.921Z,23.60
2017-09-24T21:16:47.100Z,23.10
2017-09-24T21:19:22.156Z,23.37
2017-09-24T21:21:57.008Z,24.20
2017-09-24T21:24:32.011Z,25.27
2017-09-24T21:27:07.033Z,24.50
2017-09-24T21:29:42.186Z,25.13
2017-09-24T21:32:17.450Z,23.00
2017-09-24T21:34:52.911Z,25.30
2017-09-24T21:37:27.841Z,23.57
2017-09-24T21:40:03.059Z,23.30
2017-09-24T21:42:37.757Z,22.13
2017-09-24T21:45:12.360Z,22.20
2017-09-24T21:47:47.164Z,23.07
2017-09-24T21:50:21.941Z,23.30
2017-09-24T21:52:56.570Z,25.40
2017-09-24T21:55:31.959Z,25.07
2017-09-24T21:58:06.699Z,24.90
2017-09-24T22:00:41.680Z,22.80
2017-09-24T22:03:16.402Z,23.37
2017-09-24T22:05:51.144Z,24.60
2017-09-24T22:08:26.298Z,23.53
2017-09-24T22:11:01.952Z,24.07
2017-09-24T22:13:36.700Z,24.23
2017-09-24T22:16:11.810Z,24.20
2017-09-24T22:18:46.736Z,24.00
2017-09-24T22:21:21.540Z,26.23
2017-09-24T22:23:56.502Z,27.17
2017-09-24T22:26:35.644Z,24.67
2017-09-24T22:29:10.910Z,23.87
2017-09-24T22:31:46.540Z,24.97
2017-09-24T22:34:21.805Z,22.90
2017-09-24T22:36:56.712Z,23.70
2017-09-24T22:39:31.846Z,23.73
2017-09-24T22:42:06.777Z,23.00
2017-09-24T22:44:41.710Z,24.13
2017-09-24T22:47:16.799Z,22.90
2017-09-24T22:49:51.772Z,24.23
2017-09-24T22:52:26.902Z,22.87
2017-09-24T22:55:01.775Z,22.37
2017-09-24T22:57:36.503Z,24.00
2017-09-24T23:00:11.375Z,24.13
2017-09-24T23:02:46.374Z,23.17
2017-09-24T23:05:20.892Z,23.90
2017-09-24T23:07:55.656Z,24.13
2017-09-24T23:10:34.538Z,23.67
2017-09-24T23:13:11.405Z,23.37
2017-09-24T23:15:45.696Z,22.67
2017-09-24T23:18:22.246Z,22.70
2017-09-24T23:20:58.516Z,23.80
2017-09-24T23:23:33.472Z,23.93
2017-09-24T23:26:08.532Z,23.17
2017-09-24T23:28:44.563Z,24.87
2017-09-24T23:31:20.759Z,25.07
2017-09-24T23:33:55.637Z,25.73
2017-09-24T23:36:32.255Z,27.67
2017-09-24T23:39:07.286Z,26.80
2017-09-24T23:41:42.157Z,26.50
2017-09-24T23:44:17.228Z,25.87
2017-09-24T23:46:52.734Z,24.87
2017-09-24T23:49:29.433Z,26.73
2017-09-24T23:52:08.839Z,25.13
2017-09-24T23:54:44.045Z,27.37
2017-09-24T23:57:18.984Z,25.90
2017-09-24T23:59:53.986Z,27.07
